Time;durP1;ratioP1;P1;durP2;ratioP2;P2;SDS_P1;SDS_P2;PMS_P1;PMS_P2;Temp;Humidity;BMP_temperature;BMP_pressure;BME280_temperature;BME280_humidity;BME280_pressure;Samples;Min_cycle;Max_cycle;Signal;HPM_P1;HPM_P2
2022/03/12 00:00:07;;;;;;;0.40;0.40;;;;;;;4.26;28.33;102252.94;695345;28;46847;-69
2022/03/12 00:00:35;;;;;;;0.50;0.50;;;;;;;4.23;28.35;102239.78;692553;28;135167;-68
2022/03/12 00:00:56;;;;;;;0.60;0.60;;;;;;;4.22;28.44;102250.56;695404;28;44402;-68
2022/03/12 00:01:18;;;;;;;0.50;0.50;;;;;;;4.21;28.55;102251.50;696362;28;22412;-68
2022/03/12 00:01:39;;;;;;;0.50;0.50;;;;;;;4.19;28.48;102250.75;694325;28;42811;-68
2022/03/12 00:02:00;;;;;;;0.40;0.40;;;;;;;4.18;28.60;102252.56;696384;28;22206;-69
2022/03/12 00:02:21;;;;;;;0.40;0.40;;;;;;;4.17;28.66;102248.19;695742;28;43985;-68
2022/03/12 00:02:43;;;;;;;0.40;0.40;;;;;;;4.17;28.77;102252.66;695937;28;46510;-68
2022/03/12 00:03:04;;;;;;;0.57;0.57;;;;;;;4.14;28.74;102254.59;696443;28;22428;-68
2022/03/12 00:03:26;;;;;;;0.60;0.60;;;;;;;4.13;28.79;102249.34;697356;28;1416;-68
2022/03/12 00:03:47;;;;;;;0.50;0.50;;;;;;;4.15;28.58;102250.09;696293;28;22374;-68
2022/03/12 00:04:09;;;;;;;0.50;0.50;;;;;;;4.15;28.73;102255.44;699645;28;46354;-68
2022/03/12 00:04:30;;;;;;;0.40;0.40;;;;;;;4.13;28.81;102249.34;701113;28;46299;-67
2022/03/12 00:04:51;;;;;;;0.40;0.40;;;;;;;4.12;28.82;102253.84;701873;28;21557;-68
2022/03/12 00:05:14;;;;;;;0.40;0.40;;;;;;;4.09;28.89;102245.13;701713;28;22412;-68
2022/03/12 00:05:35;;;;;;;0.50;0.50;;;;;;;4.10;28.88;102247.69;700872;28;44408;-68
2022/03/12 00:05:56;;;;;;;0.60;0.60;;;;;;;4.10;28.87;102250.38;700608;28;22413;-68
2022/03/12 00:06:18;;;;;;;0.50;0.50;;;;;;;4.09;28.92;102250.47;696272;28;22412;-68
2022/03/12 00:06:40;;;;;;;0.50;0.50;;;;;;;4.08;28.81;102251.44;694989;28;44413;-68
2022/03/12 00:07:02;;;;;;;0.40;0.40;;;;;;;4.08;28.89;102256.78;695127;28;69323;-68
2022/03/12 00:07:27;;;;;;;0.40;0.40;;;;;;;4.07;28.91;102263.94;696307;28;24308;-68
2022/03/12 00:07:51;;;;;;;0.40;0.40;;;;;;;4.08;28.89;102252.28;692576;28;138204;-68
2022/03/12 00:08:12;;;;;;;0.50;0.50;;;;;;;4.07;28.78;102255.91;694490;28;69454;-68
2022/03/12 00:08:42;;;;;;;0.50;0.50;;;;;;;4.08;28.75;102251.44;695823;28;45271;-68
2022/03/12 00:09:05;;;;;;;0.50;0.50;;;;;;;4.06;28.93;102259.56;692548;28;138110;-68
2022/03/12 00:09:26;;;;;;;0.40;0.40;;;;;;;4.07;28.83;102258.59;694544;28;46360;-68
2022/03/12 00:09:47;;;;;;;0.40;0.40;;;;;;;4.05;28.91;102257.84;695480;28;23418;-68
2022/03/12 00:10:13;;;;;;;0.40;0.40;;;;;;;4.07;28.79;102249.72;695358;28;46267;-68
2022/03/12 00:10:35;;;;;;;0.60;0.60;;;;;;;4.06;28.92;102246.19;692133;28;138213;-68
2022/03/12 00:10:56;;;;;;;0.50;0.50;;;;;;;4.06;28.88;102248.88;696456;28;22381;-68
2022/03/12 00:11:20;;;;;;;0.50;0.50;;;;;;;4.04;28.88;102249.91;696259;28;23908;-68
2022/03/12 00:11:49;;;;;;;0.50;0.50;;;;;;;4.02;28.83;102241.13;691639;28;135001;-68
2022/03/12 00:12:15;;;;;;;0.47;0.47;;;;;;;4.02;28.93;102250.00;692282;28;137914;-68
2022/03/12 00:12:38;;;;;;;0.40;0.40;;;;;;;4.04;28.84;102249.91;697103;28;138215;-68
2022/03/12 00:12:59;;;;;;;0.57;0.57;;;;;;;4.04;28.92;102247.25;700772;28;45084;-68
2022/03/12 00:13:20;;;;;;;0.60;0.60;;;;;;;4.03;28.92;102249.06;701102;28;22411;-68
2022/03/12 00:13:43;;;;;;;0.55;0.55;;;;;;;4.02;28.90;102249.16;700839;28;47460;-68
2022/03/12 00:14:07;;;;;;;0.50;0.50;;;;;;;4.01;28.96;102248.28;701048;28;45259;-68
2022/03/12 00:14:30;;;;;;;0.50;0.50;;;;;;;4.03;28.85;102249.06;696110;28;115858;-68
2022/03/12 00:14:53;;;;;;;0.40;0.40;;;;;;;4.01;28.88;102248.28;693902;28;92336;-68
2022/03/12 00:15:14;;;;;;;0.50;0.50;;;;;;;4.00;28.99;102245.69;695972;28;22468;-67
2022/03/12 00:15:37;;;;;;;0.60;0.60;;;;;;;4.00;28.86;102251.06;696326;28;22420;-68
2022/03/12 00:15:59;;;;;;;0.60;0.60;;;;;;;3.99;28.92;102244.00;693658;28;90796;-68
2022/03/12 00:16:23;;;;;;;0.60;0.60;;;;;;;3.99;28.96;102244.84;695345;28;22416;-68
2022/03/12 00:16:46;;;;;;;0.50;0.50;;;;;;;4.00;28.97;102243.91;692940;28;115791;-68
2022/03/12 00:17:07;;;;;;;0.40;0.40;;;;;;;3.97;28.88;102241.44;695724;28;46330;-68
2022/03/12 00:17:32;;;;;;;0.40;0.40;;;;;;;3.96;28.89;102240.56;697522;28;1405;-68
2022/03/12 00:17:54;;;;;;;0.50;0.50;;;;;;;4.01;28.99;102244.75;693906;28;91656;-68
2022/03/12 00:18:17;;;;;;;0.52;0.52;;;;;;;4.00;28.95;102241.25;695501;28;44214;-68
2022/03/12 00:18:39;;;;;;;0.50;0.50;;;;;;;4.00;29.02;102235.00;694642;28;69523;-68
2022/03/12 00:19:04;;;;;;;0.52;0.52;;;;;;;3.99;28.92;102242.19;695379;28;45287;-68
2022/03/12 00:19:25;;;;;;;0.50;0.50;;;;;;;3.99;29.10;102234.16;693261;28;115110;-68
2022/03/12 00:19:46;;;;;;;0.40;0.40;;;;;;;4.01;29.03;102244.75;695876;28;22372;-68
2022/03/12 00:20:12;;;;;;;0.40;0.40;;;;;;;4.00;29.00;102240.34;696429;28;23503;-68
2022/03/12 00:20:35;;;;;;;0.60;0.60;;;;;;;3.99;28.99;102236.84;692660;28;138202;-68
2022/03/12 00:20:56;;;;;;;0.50;0.50;;;;;;;3.97;28.94;102233.41;695259;28;46332;-68
2022/03/12 00:21:18;;;;;;;0.50;0.50;;;;;;;3.99;29.03;102238.66;695656;28;44425;-68
2022/03/12 00:21:43;;;;;;;0.50;0.50;;;;;;;3.97;29.05;102239.59;694847;28;45093;-68
2022/03/12 00:22:05;;;;;;;0.50;0.50;;;;;;;3.97;29.06;102242.28;693926;28;91986;-69
2022/03/12 00:22:28;;;;;;;0.40;0.40;;;;;;;3.96;29.02;102232.53;694448;28;69515;-68
2022/03/12 00:22:51;;;;;;;0.50;0.50;;;;;;;3.98;29.00;102229.75;694415;28;89747;-68
2022/03/12 00:23:21;;;;;;;0.60;0.60;;;;;;;3.97;29.00;102230.75;695304;28;46279;-68
2022/03/12 00:23:49;;;;;;;0.50;0.50;;;;;;;3.95;29.03;102236.19;691692;28;159042;-68
2022/03/12 00:24:12;;;;;;;0.50;0.50;;;;;;;3.94;29.13;102229.09;692500;28;138321;-68
2022/03/12 00:24:34;;;;;;;0.40;0.40;;;;;;;3.94;29.09;102231.78;694275;28;90764;-68
2022/03/12 00:24:57;;;;;;;0.40;0.40;;;;;;;3.98;29.04;102240.44;696429;28;23293;-68
2022/03/12 00:25:22;;;;;;;0.47;0.47;;;;;;;3.97;28.99;102238.75;694732;28;69725;-68
2022/03/12 00:25:44;;;;;;;0.60;0.60;;;;;;;3.99;28.92;102236.00;693286;28;113589;-68
2022/03/12 00:26:06;;;;;;;0.50;0.50;;;;;;;4.00;28.91;102230.53;695667;28;45275;-68
2022/03/12 00:26:29;;;;;;;0.50;0.50;;;;;;;4.00;28.89;102233.22;694538;28;45969;-68
2022/03/12 00:26:50;;;;;;;0.50;0.50;;;;;;;3.99;28.99;102227.97;695064;28;70205;-67
2022/03/12 00:27:11;;;;;;;0.50;0.50;;;;;;;3.99;29.01;102227.97;695957;28;23555;-68
2022/03/12 00:27:32;;;;;;;0.43;0.43;;;;;;;3.99;29.00;102231.50;696665;28;16074;-67
2022/03/12 00:27:54;;;;;;;0.50;0.50;;;;;;;3.97;29.05;102222.72;696233;28;22413;-68
2022/03/12 00:28:16;;;;;;;0.60;0.60;;;;;;;3.95;29.01;102228.16;691900;28;68373;-67
2022/03/12 00:28:43;;;;;;;0.50;0.50;;;;;;;3.93;29.01;102223.84;689921;28;138170;-68
2022/03/12 00:29:05;;;;;;;0.50;0.50;;;;;;;3.95;29.03;102221.97;691936;28;69355;-68
2022/03/12 00:29:27;;;;;;;0.50;0.50;;;;;;;3.98;28.92;102235.09;692996;28;45251;-68
2022/03/12 00:29:48;;;;;;;0.50;0.50;;;;;;;3.99;28.94;102230.63;691275;28;45370;-68
2022/03/12 00:30:11;;;;;;;0.40;0.40;;;;;;;4.00;28.98;102229.66;694333;28;22376;-68
2022/03/12 00:30:33;;;;;;;0.50;0.50;;;;;;;3.98;29.05;102232.44;695410;28;45212;-67
2022/03/12 00:30:54;;;;;;;0.60;0.60;;;;;;;3.98;29.02;102229.75;695494;28;46347;-67
2022/03/12 00:31:16;;;;;;;0.50;0.50;;;;;;;3.95;29.04;102233.50;695813;28;21539;-68
2022/03/12 00:31:37;;;;;;;0.50;0.50;;;;;;;3.95;29.06;102227.31;694930;28;46355;-68
2022/03/12 00:31:58;;;;;;;0.40;0.40;;;;;;;3.94;29.13;102228.25;696597;28;22375;-67
2022/03/12 00:32:19;;;;;;;0.40;0.40;;;;;;;3.92;29.13;102228.34;695852;28;21574;-67
2022/03/12 00:32:42;;;;;;;0.40;0.40;;;;;;;3.94;29.03;102228.25;696584;28;22392;-67
2022/03/12 00:33:04;;;;;;;0.60;0.60;;;;;;;3.93;29.14;102230.09;694558;28;69475;-67
2022/03/12 00:33:26;;;;;;;0.60;0.60;;;;;;;3.93;29.14;102219.38;694417;28;69418;-68
2022/03/12 00:33:48;;;;;;;0.50;0.50;;;;;;;3.95;29.00;102228.16;695442;28;45188;-68
2022/03/12 00:34:09;;;;;;;0.50;0.50;;;;;;;3.93;29.01;102229.19;695384;28;44393;-68
2022/03/12 00:34:31;;;;;;;0.40;0.40;;;;;;;3.94;29.04;102234.44;696035;28;23475;-67
2022/03/12 00:34:53;;;;;;;0.40;0.40;;;;;;;3.94;28.99;102230.94;696364;28;22389;-67
2022/03/12 00:35:15;;;;;;;0.50;0.50;;;;;;;3.92;28.97;102232.84;694190;28;69551;-67
2022/03/12 00:35:36;;;;;;;0.70;0.70;;;;;;;3.92;29.05;102231.03;695308;28;46364;-67
2022/03/12 00:35:58;;;;;;;0.52;0.52;;;;;;;3.92;29.09;102236.38;695861;28;45315;-67
2022/03/12 00:36:21;;;;;;;0.50;0.50;;;;;;;3.91;29.13;102240.00;694818;28;46298;-67
2022/03/12 00:36:42;;;;;;;0.50;0.50;;;;;;;3.91;29.18;102240.00;695489;28;46394;-67
2022/03/12 00:37:04;;;;;;;0.43;0.43;;;;;;;3.91;29.14;102239.16;696006;28;21326;-68
2022/03/12 00:37:25;;;;;;;0.40;0.40;;;;;;;3.92;29.25;102233.69;695624;28;44401;-68
2022/03/12 00:37:49;;;;;;;0.45;0.45;;;;;;;3.92;29.16;102235.53;695282;28;46438;-68
2022/03/12 00:38:11;;;;;;;0.60;0.60;;;;;;;3.93;29.10;102231.88;694850;28;67423;-68
2022/03/12 00:38:32;;;;;;;0.60;0.60;;;;;;;3.91;29.21;102236.47;695591;28;45283;-67
2022/03/12 00:38:53;;;;;;;0.50;0.50;;;;;;;3.90;29.22;102229.41;696726;28;22417;-68
2022/03/12 00:39:15;;;;;;;0.50;0.50;;;;;;;3.89;29.28;102228.53;696108;28;21528;-67
2022/03/12 00:39:37;;;;;;;0.40;0.40;;;;;;;3.89;29.19;102235.72;694845;28;45272;-67
2022/03/12 00:39:58;;;;;;;0.40;0.40;;;;;;;3.87;29.14;102233.13;695457;28;44415;-67
2022/03/12 00:40:20;;;;;;;0.43;0.43;;;;;;;3.88;29.34;102236.66;696323;28;23859;-68
2022/03/12 00:40:43;;;;;;;0.50;0.50;;;;;;;3.86;29.27;102236.75;695648;28;46187;-67
2022/03/12 00:41:05;;;;;;;0.50;0.50;;;;;;;3.87;29.25;102230.47;697265;28;68850;-67
2022/03/12 00:41:26;;;;;;;0.50;0.50;;;;;;;3.86;29.28;102235.91;696076;28;67513;-68
2022/03/12 00:41:48;;;;;;;0.50;0.50;;;;;;;3.87;29.31;102240.28;697699;28;46429;-68
2022/03/12 00:42:12;;;;;;;0.40;0.40;;;;;;;3.85;29.27;102236.84;697718;28;44399;-68
2022/03/12 00:42:34;;;;;;;0.40;0.40;;;;;;;3.83;29.42;102236.09;696542;28;90370;-68
2022/03/12 00:42:55;;;;;;;0.40;0.40;;;;;;;3.83;29.41;102228.94;698296;28;22424;-68
2022/03/12 00:43:18;;;;;;;0.50;0.50;;;;;;;3.85;29.32;102234.19;696175;28;22409;-68
2022/03/12 00:43:40;;;;;;;0.60;0.60;;;;;;;3.83;29.39;102228.94;693915;28;93117;-68
2022/03/12 00:44:01;;;;;;;0.50;0.50;;;;;;;3.83;29.27;102236.09;696006;28;22249;-68
2022/03/12 00:44:23;;;;;;;0.50;0.50;;;;;;;3.82;29.47;102234.38;696577;28;12912;-68
2022/03/12 00:44:44;;;;;;;0.50;0.50;;;;;;;3.81;29.43;102236.19;695709;28;46299;-68
2022/03/12 00:45:06;;;;;;;0.40;0.40;;;;;;;3.81;29.43;102225.50;696468;28;22434;-68
2022/03/12 00:45:29;;;;;;;0.40;0.40;;;;;;;3.82;29.46;102231.69;695096;28;44452;-68
2022/03/12 00:45:51;;;;;;;0.60;0.60;;;;;;;3.84;29.21;102228.00;694983;28;67486;-68
2022/03/12 00:46:12;;;;;;;0.50;0.50;;;;;;;3.85;29.39;102232.34;695155;28;46323;-68
2022/03/12 00:46:33;;;;;;;0.50;0.50;;;;;;;3.86;29.39;102238.59;694726;28;45248;-69
2022/03/12 00:46:57;;;;;;;0.50;0.50;;;;;;;3.84;29.28;102224.44;695631;28;45234;-68
2022/03/12 00:47:18;;;;;;;0.40;0.40;;;;;;;3.85;29.29;102226.16;695375;28;44408;-68
2022/03/12 00:47:39;;;;;;;0.40;0.40;;;;;;;3.84;29.40;102233.34;696152;28;22261;-68
2022/03/12 00:48:00;;;;;;;0.50;0.50;;;;;;;3.88;29.29;102232.16;695943;28;23521;-68
2022/03/12 00:48:22;;;;;;;0.60;0.60;;;;;;;3.90;29.24;102224.94;695378;28;22383;-68
2022/03/12 00:48:45;;;;;;;0.60;0.60;;;;;;;3.90;29.26;102234.75;693642;28;91266;-68
2022/03/12 00:49:06;;;;;;;0.50;0.50;;;;;;;3.91;29.30;102233.78;696120;28;22373;-68
2022/03/12 00:49:27;;;;;;;0.50;0.50;;;;;;;3.90;29.23;102229.41;700871;28;22736;-68
2022/03/12 00:49:50;;;;;;;0.50;0.50;;;;;;;3.91;29.22;102233.78;700878;28;21578;-67
2022/03/12 00:50:11;;;;;;;0.40;0.40;;;;;;;3.90;29.31;102232.06;699950;28;69450;-68
2022/03/12 00:50:32;;;;;;;0.40;0.40;;;;;;;3.96;29.09;102226.34;701599;28;21525;-68
2022/03/12 00:50:53;;;;;;;0.60;0.60;;;;;;;3.95;29.23;102225.50;701839;28;22410;-68
2022/03/12 00:51:15;;;;;;;0.60;0.60;;;;;;;3.93;29.22;102231.88;700610;28;22372;-68
2022/03/12 00:51:38;;;;;;;0.50;0.50;;;;;;;3.92;29.29;102235.53;694334;28;45248;-67
2022/03/12 00:51:59;;;;;;;0.50;0.50;;;;;;;3.91;29.27;102237.31;693373;28;92378;-68
2022/03/12 00:52:21;;;;;;;0.50;0.50;;;;;;;3.89;29.25;102225.88;695899;28;23215;-68
2022/03/12 00:52:43;;;;;;;0.40;0.40;;;;;;;3.88;29.19;102234.84;696173;28;21528;-68
2022/03/12 00:53:06;;;;;;;0.40;0.40;;;;;;;3.89;29.33;102223.19;695532;28;44417;-68
2022/03/12 00:53:27;;;;;;;0.50;0.50;;;;;;;3.88;29.36;102228.66;694336;28;68179;-68
2022/03/12 00:53:49;;;;;;;0.50;0.50;;;;;;;3.88;29.30;102225.97;696171;28;22390;-67
2022/03/12 00:54:10;;;;;;;0.50;0.50;;;;;;;3.87;29.35;102221.56;694924;28;46336;-68
2022/03/12 00:54:31;;;;;;;0.40;0.40;;;;;;;3.86;29.30;102230.56;696429;28;21509;-68
2022/03/12 00:54:52;;;;;;;0.50;0.50;;;;;;;3.84;29.40;102228.00;693893;28;21539;-68
2022/03/12 00:55:14;;;;;;;0.60;0.60;;;;;;;3.84;29.41;102227.09;693498;28;23379;-68
2022/03/12 00:55:35;;;;;;;0.60;0.60;;;;;;;3.81;29.45;102233.53;693114;28;46412;-68
2022/03/12 00:55:56;;;;;;;0.50;0.50;;;;;;;3.79;29.38;102230.94;694023;28;22197;-68
2022/03/12 00:56:20;;;;;;;0.50;0.50;;;;;;;3.78;29.54;102231.88;691822;28;69663;-68
2022/03/12 00:56:41;;;;;;;0.50;0.50;;;;;;;3.77;29.48;102224.81;691617;28;65741;-68
2022/03/12 00:57:03;;;;;;;0.50;0.50;;;;;;;3.76;29.55;102236.47;693623;28;22197;-68
2022/03/12 00:57:24;;;;;;;0.50;0.50;;;;;;;3.76;29.55;102230.25;692582;28;44424;-68
2022/03/12 00:57:46;;;;;;;0.60;0.60;;;;;;;3.76;29.68;102224.91;693485;28;22486;-68
2022/03/12 00:58:08;;;;;;;0.60;0.60;;;;;;;3.75;29.66;102228.56;692811;28;44402;-68
2022/03/12 00:58:29;;;;;;;0.55;0.55;;;;;;;3.74;29.79;102226.84;692818;28;44179;-68
2022/03/12 00:58:51;;;;;;;0.50;0.50;;;;;;;3.73;29.76;102228.66;693811;28;22416;-67
2022/03/12 00:59:12;;;;;;;0.50;0.50;;;;;;;3.73;29.74;102233.13;692391;28;46291;-68
2022/03/12 00:59:35;;;;;;;0.40;0.40;;;;;;;3.72;29.66;102231.44;693816;28;13693;-68
2022/03/12 00:59:56;;;;;;;0.40;0.40;;;;;;;3.71;29.79;102227.88;693405;28;24162;-68
2022/03/12 01:00:21;;;;;;;0.60;0.60;;;;;;;3.72;29.78;102226.94;693358;28;23422;-68
2022/03/12 01:00:42;;;;;;;0.60;0.60;;;;;;;3.72;29.71;102232.28;690948;28;92311;-68
2022/03/12 01:01:04;;;;;;;0.50;0.50;;;;;;;3.72;29.76;102228.75;693248;28;21377;-68
2022/03/12 01:01:26;;;;;;;0.50;0.50;;;;;;;3.70;29.72;102227.97;691979;28;46332;-68
2022/03/12 01:01:49;;;;;;;0.50;0.50;;;;;;;3.69;29.91;102221.78;691744;28;67530;-68
2022/03/12 01:02:15;;;;;;;0.50;0.50;;;;;;;3.69;29.91;102227.13;690443;28;92094;-68
2022/03/12 01:02:37;;;;;;;0.50;0.50;;;;;;;3.69;29.86;102227.13;690975;28;92143;-68
2022/03/12 01:02:58;;;;;;;0.60;0.60;;;;;;;3.71;29.87;102227.03;692690;28;45217;-68
2022/03/12 01:03:20;;;;;;;0.60;0.60;;;;;;;3.70;29.83;102231.53;693404;28;21572;-68
2022/03/12 01:03:41;;;;;;;0.50;0.50;;;;;;;3.70;29.80;102225.28;692464;28;69443;-68
2022/03/12 01:04:03;;;;;;;0.50;0.50;;;;;;;3.70;29.82;102222.63;693032;28;24809;-68
2022/03/12 01:04:24;;;;;;;0.40;0.40;;;;;;;3.69;29.73;102223.59;693254;28;21401;-68
2022/03/12 01:04:45;;;;;;;0.40;0.40;;;;;;;3.68;29.85;102221.88;693324;28;22439;-69
2022/03/12 01:05:08;;;;;;;0.50;0.50;;;;;;;3.69;29.86;102232.47;693174;28;23511;-68
2022/03/12 01:05:42;;;;;;;0.60;0.60;;;;;;;3.74;29.74;102214.31;692990;28;35234;-68
2022/03/12 01:06:05;;;;;;;0.50;0.50;;;;;;;3.73;29.65;102211.75;689239;28;138088;-68
2022/03/12 01:06:28;;;;;;;0.50;0.50;;;;;;;3.71;29.71;102219.00;689674;28;38206;-69
2022/03/12 01:06:49;;;;;;;0.50;0.50;;;;;;;3.70;29.67;102220.84;688658;28;43771;-69
2022/03/12 01:07:10;;;;;;;0.50;0.50;;;;;;;3.70;29.73;102220.84;689382;28;22613;-68
2022/03/12 01:07:31;;;;;;;0.40;0.40;;;;;;;3.69;29.86;102221.78;691350;28;22643;-68
2022/03/12 01:07:52;;;;;;;0.60;0.60;;;;;;;3.69;29.77;102220.94;690750;28;21553;-68
2022/03/12 01:08:16;;;;;;;0.60;0.60;;;;;;;3.67;29.87;102212.13;690942;28;22399;-69
2022/03/12 01:08:37;;;;;;;0.50;0.50;;;;;;;3.66;29.85;102215.78;691256;28;90768;-68
2022/03/12 01:08:58;;;;;;;0.50;0.50;;;;;;;3.66;29.97;102215.78;693343;28;22415;-69
2022/03/12 01:09:19;;;;;;;0.50;0.50;;;;;;;3.66;29.89;102205.09;693566;28;22375;-68
2022/03/12 01:09:41;;;;;;;0.50;0.50;;;;;;;3.65;29.95;102214.03;693217;28;23497;-68
2022/03/12 01:10:03;;;;;;;0.50;0.50;;;;;;;3.64;29.92;102213.19;692824;28;45236;-69
2022/03/12 01:10:24;;;;;;;0.60;0.60;;;;;;;3.64;29.88;102217.66;693119;28;44429;-68
2022/03/12 01:10:45;;;;;;;0.60;0.60;;;;;;;3.65;29.88;102219.38;693721;28;23489;-69
2022/03/12 01:11:10;;;;;;;0.60;0.60;;;;;;;3.64;29.90;102215.88;692375;28;45280;-68
2022/03/12 01:11:31;;;;;;;0.50;0.50;;;;;;;3.65;30.02;102214.03;690486;28;92175;-69
2022/03/12 01:11:52;;;;;;;0.50;0.50;;;;;;;3.65;29.88;102219.38;694009;28;21572;-68
2022/03/12 01:12:13;;;;;;;0.50;0.50;;;;;;;3.64;29.96;102210.53;693474;28;22426;-68
2022/03/12 01:12:35;;;;;;;0.43;0.43;;;;;;;3.62;30.05;102209.78;695050;28;1591;-68
2022/03/12 01:12:56;;;;;;;0.60;0.60;;;;;;;3.63;30.02;102211.47;692495;28;67553;-68
2022/03/12 01:13:18;;;;;;;0.60;0.60;;;;;;;3.64;29.94;102215.88;694361;28;22456;-69
2022/03/12 01:13:39;;;;;;;0.60;0.60;;;;;;;3.63;30.00;102202.59;694528;28;22381;-68
2022/03/12 01:14:01;;;;;;;0.52;0.52;;;;;;;3.61;30.06;102211.56;694229;28;21538;-69
2022/03/12 01:14:22;;;;;;;0.50;0.50;;;;;;;3.60;29.96;102222.34;693127;28;46263;-68
2022/03/12 01:14:43;;;;;;;0.50;0.50;;;;;;;3.62;30.02;102217.78;694421;28;21556;-68
2022/03/12 01:15:05;;;;;;;0.40;0.40;;;;;;;3.61;30.05;102222.25;694060;28;22541;-69
2022/03/12 01:15:27;;;;;;;0.60;0.60;;;;;;;3.61;30.05;102216.91;698653;28;31277;-69
2022/03/12 01:15:50;;;;;;;0.60;0.60;;;;;;;3.61;30.09;102222.25;699256;28;23437;-68
2022/03/12 01:16:11;;;;;;;0.50;0.50;;;;;;;3.60;30.19;102208.97;697616;28;69456;-69
2022/03/12 01:16:33;;;;;;;0.50;0.50;;;;;;;3.59;30.11;102208.13;698555;28;22407;-68
2022/03/12 01:16:57;;;;;;;0.50;0.50;;;;;;;3.59;30.12;102212.63;698840;28;46190;-69
2022/03/12 01:17:18;;;;;;;0.50;0.50;;;;;;;3.60;30.29;102215.22;694295;28;92191;-68
2022/03/12 01:17:40;;;;;;;0.40;0.40;;;;;;;3.59;30.17;102213.47;693969;28;21270;-68
2022/03/12 01:18:01;;;;;;;0.60;0.60;;;;;;;3.59;30.20;102213.47;693088;28;46363;-68
2022/03/12 01:18:24;;;;;;;0.63;0.63;;;;;;;3.60;30.10;102209.88;693784;28;23465;-68
2022/03/12 01:18:45;;;;;;;0.60;0.60;;;;;;;3.61;30.05;102213.38;691557;28;92349;-69
2022/03/12 01:19:07;;;;;;;0.50;0.50;;;;;;;3.60;30.11;102215.22;692880;28;46533;-68
2022/03/12 01:19:34;;;;;;;0.50;0.50;;;;;;;3.59;30.16;102221.50;692002;28;67315;-69
2022/03/12 01:19:55;;;;;;;0.40;0.40;;;;;;;3.60;30.06;102219.66;689888;28;138045;-69
2022/03/12 01:20:20;;;;;;;0.40;0.40;;;;;;;3.60;30.28;102225.91;693803;28;23450;-68
2022/03/12 01:20:41;;;;;;;0.60;0.60;;;;;;;3.60;30.17;102222.34;691725;28;92257;-68
2022/03/12 01:21:07;;;;;;;0.60;0.60;;;;;;;3.59;30.10;102223.31;694135;28;22368;-69
2022/03/12 01:21:29;;;;;;;0.55;0.55;;;;;;;3.57;30.23;102228.75;689115;28;138066;-69
2022/03/12 01:21:50;;;;;;;0.50;0.50;;;;;;;3.57;30.12;102215.41;693336;28;44404;-69
2022/03/12 01:22:20;;;;;;;0.50;0.50;;;;;;;3.54;30.24;102214.72;693769;28;23566;-69
2022/03/12 01:22:41;;;;;;;0.40;0.40;;;;;;;3.54;30.31;102220.94;690387;28;136221;-68
2022/03/12 01:23:04;;;;;;;0.50;0.50;;;;;;;3.53;30.38;102223.69;693964;28;22361;-69
2022/03/12 01:23:28;;;;;;;0.60;0.60;;;;;;;3.53;30.50;102219.19;691570;28;93521;-68
2022/03/12 01:23:50;;;;;;;0.60;0.60;;;;;;;3.52;30.39;102217.47;691634;28;91964;-69
2022/03/12 01:24:11;;;;;;;0.60;0.60;;;;;;;3.53;30.43;102223.69;692931;28;44393;-68
2022/03/12 01:24:34;;;;;;;0.50;0.50;;;;;;;3.52;30.30;102216.63;694394;28;22380;-69
2022/03/12 01:24:55;;;;;;;0.40;0.40;;;;;;;3.51;30.30;102214.91;692293;28;67486;-69
2022/03/12 01:25:16;;;;;;;0.40;0.40;;;;;;;3.50;30.18;102222.06;693695;28;23485;-69
2022/03/12 01:25:37;;;;;;;0.52;0.52;;;;;;;3.49;30.31;102220.34;693973;28;22417;-68
2022/03/12 01:26:00;;;;;;;0.60;0.60;;;;;;;3.49;30.37;102220.34;694994;28;875;-68
2022/03/12 01:26:22;;;;;;;0.50;0.50;;;;;;;3.47;30.40;102214.25;692295;28;44062;-68
2022/03/12 01:26:43;;;;;;;0.50;0.50;;;;;;;3.48;30.35;102221.31;693969;28;22883;-68
2022/03/12 01:27:04;;;;;;;0.50;0.50;;;;;;;3.49;30.42;102222.16;693880;28;21535;-69
2022/03/12 01:27:26;;;;;;;0.45;0.45;;;;;;;3.47;30.38;102222.25;693863;28;22224;-68
2022/03/12 01:27:47;;;;;;;0.40;0.40;;;;;;;3.46;30.52;102217.84;693568;28;46375;-69
2022/03/12 01:28:09;;;;;;;0.55;0.55;;;;;;;3.47;30.31;102221.41;694211;28;23344;-68
2022/03/12 01:28:30;;;;;;;0.60;0.60;;;;;;;3.46;30.58;102222.34;693717;28;44352;-69
2022/03/12 01:28:52;;;;;;;0.50;0.50;;;;;;;3.45;30.60;102220.63;694229;28;24142;-68
2022/03/12 01:29:13;;;;;;;0.50;0.50;;;;;;;3.44;30.64;102214.41;693289;28;44476;-68
2022/03/12 01:29:34;;;;;;;0.50;0.50;;;;;;;3.44;30.73;102222.44;693505;28;22455;-69
2022/03/12 01:29:56;;;;;;;0.50;0.50;;;;;;;3.45;30.86;102218.81;693790;28;45269;-69
2022/03/12 01:30:27;;;;;;;0.40;0.40;;;;;;;3.46;31.03;102214.34;692578;28;67492;-68
2022/03/12 01:30:48;;;;;;;0.50;0.50;;;;;;;3.45;30.81;102216.16;690340;28;137999;-69
2022/03/12 01:31:10;;;;;;;0.50;0.50;;;;;;;3.45;30.78;102218.81;694393;28;23263;-68
2022/03/12 01:31:32;;;;;;;0.50;0.50;;;;;;;3.45;30.80;102221.50;691972;28;46233;-68
2022/03/12 01:31:53;;;;;;;0.50;0.50;;;;;;;3.45;30.81;102223.28;692903;28;46363;-69
2022/03/12 01:32:16;;;;;;;0.50;0.50;;;;;;;3.45;30.89;102223.28;696821;28;69266;-68
2022/03/12 01:32:37;;;;;;;0.50;0.50;;;;;;;3.43;30.82;102213.56;699314;28;22387;-68
2022/03/12 01:32:58;;;;;;;0.40;0.40;;;;;;;3.45;30.76;102221.50;699203;28;22406;-69
2022/03/12 01:33:20;;;;;;;0.60;0.60;;;;;;;3.46;30.78;102219.66;698622;28;21533;-68
2022/03/12 01:33:41;;;;;;;0.60;0.60;;;;;;;3.45;30.58;102224.16;698570;28;46332;-69
2022/03/12 01:34:03;;;;;;;0.60;0.60;;;;;;;3.45;30.65;102218.81;697998;28;46738;-68
2022/03/12 01:34:25;;;;;;;0.50;0.50;;;;;;;3.44;30.76;102222.44;692931;28;46292;-68
2022/03/12 01:34:47;;;;;;;0.50;0.50;;;;;;;3.44;30.74;102219.75;693227;28;45260;-69
2022/03/12 01:35:08;;;;;;;0.50;0.50;;;;;;;3.45;30.67;102220.63;693006;28;44409;-68
2022/03/12 01:35:29;;;;;;;0.40;0.40;;;;;;;3.45;30.66;102228.63;694205;28;25221;-69
2022/03/12 01:35:50;;;;;;;0.60;0.60;;;;;;;3.43;30.69;102220.72;694298;28;21546;-69
2022/03/12 01:36:13;;;;;;;0.70;0.70;;;;;;;3.46;30.57;102211.66;694233;28;22293;-68
2022/03/12 01:36:34;;;;;;;0.60;0.60;;;;;;;3.42;30.80;102209.19;692106;28;55896;-68
2022/03/12 01:36:56;;;;;;;0.50;0.50;;;;;;;3.43;30.79;102216.25;693627;28;46419;-68
2022/03/12 01:37:19;;;;;;;0.50;0.50;;;;;;;3.43;30.80;102220.72;694077;28;20548;-68
2022/03/12 01:37:41;;;;;;;0.50;0.50;;;;;;;3.43;30.86;102216.25;691937;28;69438;-69
2022/03/12 01:38:02;;;;;;;0.47;0.47;;;;;;;3.42;30.74;102221.69;693174;28;45225;-68
2022/03/12 01:38:29;;;;;;;0.60;0.60;;;;;;;3.41;30.89;102217.28;694271;28;22102;-68
2022/03/12 01:38:53;;;;;;;0.60;0.60;;;;;;;3.38;30.80;102212.97;689834;28;161082;-68
2022/03/12 01:39:14;;;;;;;0.60;0.60;;;;;;;3.39;30.89;102214.72;691787;28;90909;-69
2022/03/12 01:39:35;;;;;;;0.50;0.50;;;;;;;3.38;31.05;102212.13;693817;28;22552;-68
2022/03/12 01:40:00;;;;;;;0.50;0.50;;;;;;;3.40;31.21;102218.22;690860;28;115158;-69
2022/03/12 01:40:21;;;;;;;0.40;0.40;;;;;;;3.39;31.26;102217.38;693927;28;23627;-69
2022/03/12 01:40:43;;;;;;;0.40;0.40;;;;;;;3.40;31.08;102210.22;694379;28;22488;-68
2022/03/12 01:41:06;;;;;;;0.60;0.60;;;;;;;3.39;31.09;102204.03;692703;28;69386;-69
2022/03/12 01:41:29;;;;;;;0.60;0.60;;;;;;;3.39;31.02;102213.84;692857;28;46450;-68
2022/03/12 01:41:52;;;;;;;0.50;0.50;;;;;;;3.38;30.94;102214.78;691728;28;67524;-69
2022/03/12 01:42:14;;;;;;;0.50;0.50;;;;;;;3.36;30.84;102206.88;692083;28;70340;-68
2022/03/12 01:42:36;;;;;;;0.50;0.50;;;;;;;3.36;30.96;102212.22;692621;28;69379;-69
2022/03/12 01:42:57;;;;;;;0.50;0.50;;;;;;;3.35;30.96;102209.66;694365;28;23435;-68
2022/03/12 01:43:18;;;;;;;0.45;0.45;;;;;;;3.35;30.88;102220.31;694080;28;23501;-68
2022/03/12 01:43:43;;;;;;;0.60;0.60;;;;;;;3.33;30.93;102208.88;692417;28;69457;-68
2022/03/12 01:44:06;;;;;;;0.60;0.60;;;;;;;3.34;30.95;102213.25;692154;28;67286;-69
2022/03/12 01:44:27;;;;;;;0.55;0.55;;;;;;;3.35;31.12;102209.66;692684;28;67550;-68
2022/03/12 01:44:50;;;;;;;0.50;0.50;;;;;;;3.35;31.17;102212.31;694495;28;22423;-68
2022/03/12 01:45:12;;;;;;;0.50;0.50;;;;;;;3.35;31.07;102212.31;692208;28;69445;-68
2022/03/12 01:45:35;;;;;;;0.50;0.50;;;;;;;3.34;31.18;102216.81;693649;28;45268;-69
2022/03/12 01:45:59;;;;;;;0.50;0.50;;;;;;;3.34;30.97;102213.25;692372;28;68439;-68